Anderson, Nebraska
Current Conditions -  °F | °C
As of 8:35 PM on Wednesday 22 Oct 2014 (Local Time) from KHDE Reporting Station
Haze Haze  
Wind Chill: 53°   Ceiling: 500
Heat Index: 53°   Visibility: 0.75mi
Dew Point: 52°   Wind: 0mph
Humidity: 95%   Direction: NA
Pressure: 30.04"   Gusts: NA
Location:  40.5251°N, 99.2414°W
Report Text: KHDE 230135Z AUTO 00000KT 3/4SM BR VV005 12/11 A3004 RMK AO2 T01160109
Loading
Personal Weather Stations






























Interactive Weather Map
Tropical Storm Tracking
New forecast layout! Learn more

10-Day Weather Forecast

Advertisements
Track Severe Weather on mobile